<?xml version="1.0" encoding="utf-8"?>
<gpx xmlns:xsi="http://www.w3.org/2001/XMLSchema-instance" xmlns:xsd="http://www.w3.org/2001/XMLSchema" version="1.1" creator="Shapelink.com" xmlns="http://www.topografix.com/GPX/1/1" xmlns:gpxtpx="http://www.garmin.com/xmlschemas/TrackPointExtension/v1">
  <metadata>
    <name>Övrigt 1.81 km, 2020-05-30</name>
    <desc></desc>
    <author><name>Marian Moron</name></author> 
    <time>2020-05-30T20:26:58Z</time>
  </metadata>
  <trk>
    <name>Övrigt 1.81 km, 2020-05-30</name>
    <trkseg>
      <trkpt lat="51.229819502915" lon="4.457884681264">
        <ele>14.8</ele>
        <time>2020-05-30T20:26:58Z</time>
      </trkpt>
      <trkpt lat="51.2298542878" lon="4.45797889382">
        <ele>8.2</ele>
        <time>2020-05-30T20:27:00Z</time>
      </trkpt>
      <trkpt lat="51.229966102346" lon="4.45862849107">
        <ele>0</ele>
        <time>2020-05-30T20:27:37Z</time>
      </trkpt>
      <trkpt lat="51.229921845914" lon="4.458768217343">
        <ele>0</ele>
        <time>2020-05-30T20:27:59Z</time>
      </trkpt>
      <trkpt lat="51.230140613504" lon="4.458921522294">
        <ele>0</ele>
        <time>2020-05-30T20:28:20Z</time>
      </trkpt>
      <trkpt lat="51.230231976214" lon="4.458875840939">
        <ele>1.2</ele>
        <time>2020-05-30T20:28:27Z</time>
      </trkpt>
      <trkpt lat="51.230331134091" lon="4.458864776831">
        <ele>3</ele>
        <time>2020-05-30T20:28:34Z</time>
      </trkpt>
      <trkpt lat="51.230507153991" lon="4.45885312599">
        <ele>5.4</ele>
        <time>2020-05-30T20:28:47Z</time>
      </trkpt>
      <trkpt lat="51.230509584742" lon="4.458931580574">
        <ele>5.8</ele>
        <time>2020-05-30T20:28:51Z</time>
      </trkpt>
      <trkpt lat="51.230505393792" lon="4.459277920682">
        <ele>7.2</ele>
        <time>2020-05-30T20:29:28Z</time>
      </trkpt>
      <trkpt lat="51.230582339634" lon="4.459988370526">
        <ele>7.4</ele>
        <time>2020-05-30T20:30:12Z</time>
      </trkpt>
      <trkpt lat="51.230658279648" lon="4.460690857565">
        <ele>7.6</ele>
        <time>2020-05-30T20:30:57Z</time>
      </trkpt>
      <trkpt lat="51.230585860032" lon="4.460743076802">
        <ele>7.2</ele>
        <time>2020-05-30T20:31:09Z</time>
      </trkpt>
      <trkpt lat="51.230461807912" lon="4.460730503952">
        <ele>7.4</ele>
        <time>2020-05-30T20:31:22Z</time>
      </trkpt>
      <trkpt lat="51.230329122435" lon="4.460817927169">
        <ele>7.6</ele>
        <time>2020-05-30T20:32:05Z</time>
      </trkpt>
      <trkpt lat="51.230141870789" lon="4.460890849699">
        <ele>7.4</ele>
        <time>2020-05-30T20:32:26Z</time>
      </trkpt>
      <trkpt lat="51.229988733476" lon="4.460968801369">
        <ele>8.8</ele>
        <time>2020-05-30T20:32:45Z</time>
      </trkpt>
      <trkpt lat="51.22978890898" lon="4.461022277891">
        <ele>7.2</ele>
        <time>2020-05-30T20:33:20Z</time>
      </trkpt>
      <trkpt lat="51.229677597348" lon="4.461150940056">
        <ele>5.6</ele>
        <time>2020-05-30T20:33:55Z</time>
      </trkpt>
      <trkpt lat="51.229742054159" lon="4.461209613356">
        <ele>4.6</ele>
        <time>2020-05-30T20:34:07Z</time>
      </trkpt>
      <trkpt lat="51.229932826203" lon="4.46186725723">
        <ele>5.2</ele>
        <time>2020-05-30T20:34:45Z</time>
      </trkpt>
      <trkpt lat="51.230106415352" lon="4.462544179474">
        <ele>0</ele>
        <time>2020-05-30T20:35:23Z</time>
      </trkpt>
      <trkpt lat="51.230152096707" lon="4.46268868343">
        <ele>0.2</ele>
        <time>2020-05-30T20:35:35Z</time>
      </trkpt>
      <trkpt lat="51.230214038948" lon="4.462992611124">
        <ele>4</ele>
        <time>2020-05-30T20:35:54Z</time>
      </trkpt>
      <trkpt lat="51.230290649514" lon="4.463217246044">
        <ele>0.8</ele>
        <time>2020-05-30T20:36:09Z</time>
      </trkpt>
      <trkpt lat="51.230313951196" lon="4.463236440595">
        <ele>0.2</ele>
        <time>2020-05-30T20:36:11Z</time>
      </trkpt>
      <trkpt lat="51.230345970054" lon="4.463378094705">
        <ele>0</ele>
        <time>2020-05-30T20:36:18Z</time>
      </trkpt>
      <trkpt lat="51.230339851267" lon="4.463435678358">
        <ele>0</ele>
        <time>2020-05-30T20:36:21Z</time>
      </trkpt>
      <trkpt lat="51.230396177635" lon="4.463779587715">
        <ele>0</ele>
        <time>2020-05-30T20:36:55Z</time>
      </trkpt>
      <trkpt lat="51.23025410443" lon="4.463939849643">
        <ele>0</ele>
        <time>2020-05-30T20:37:17Z</time>
      </trkpt>
      <trkpt lat="51.229894437101" lon="4.464371601312">
        <ele>4.6</ele>
        <time>2020-05-30T20:37:56Z</time>
      </trkpt>
      <trkpt lat="51.229435695714" lon="4.464374870253">
        <ele>10.2</ele>
        <time>2020-05-30T20:38:39Z</time>
      </trkpt>
      <trkpt lat="51.229365874487" lon="4.464387191646">
        <ele>10.6</ele>
        <time>2020-05-30T20:38:45Z</time>
      </trkpt>
      <trkpt lat="51.229264788773" lon="4.464335559142">
        <ele>13.4</ele>
        <time>2020-05-30T20:39:22Z</time>
      </trkpt>
      <trkpt lat="51.228889614929" lon="4.464402195247">
        <ele>7.6</ele>
        <time>2020-05-30T20:41:40Z</time>
      </trkpt>
      <trkpt lat="51.228785930826" lon="4.464455252674">
        <ele>3.6</ele>
        <time>2020-05-30T20:41:56Z</time>
      </trkpt>
      <trkpt lat="51.228744440421" lon="4.46476739463">
        <ele>12.2</ele>
        <time>2020-05-30T20:42:32Z</time>
      </trkpt>
      <trkpt lat="51.228745613887" lon="4.464812908347">
        <ele>12.6</ele>
        <time>2020-05-30T20:42:35Z</time>
      </trkpt>
      <trkpt lat="51.228740752385" lon="4.464923465608">
        <ele>13.4</ele>
        <time>2020-05-30T20:42:46Z</time>
      </trkpt>
      <trkpt lat="51.228642935612" lon="4.465635088918">
        <ele>4</ele>
        <time>2020-05-30T20:43:31Z</time>
      </trkpt>
      <trkpt lat="51.228309587449" lon="4.46610766044">
        <ele>1.8</ele>
        <time>2020-05-30T20:44:11Z</time>
      </trkpt>
      <trkpt lat="51.228220823128" lon="4.466160131134">
        <ele>8</ele>
        <time>2020-05-30T20:44:43Z</time>
      </trkpt>
      <trkpt lat="51.22783592628" lon="4.466076479772">
        <ele>5</ele>
        <time>2020-05-30T20:45:27Z</time>
      </trkpt>
      <trkpt lat="51.227802482499" lon="4.465836338337">
        <ele>0</ele>
        <time>2020-05-30T20:45:48Z</time>
      </trkpt>
      <trkpt lat="51.227845649284" lon="4.465127732511">
        <ele>1</ele>
        <time>2020-05-30T20:46:24Z</time>
      </trkpt>
      <trkpt lat="51.227820755041" lon="4.464996555776">
        <ele>0</ele>
        <time>2020-05-30T20:46:37Z</time>
      </trkpt>
      <trkpt lat="51.227809523295" lon="4.464298343506">
        <ele>2.6</ele>
        <time>2020-05-30T20:47:19Z</time>
      </trkpt>
      <trkpt lat="51.227727548313" lon="4.463598790132">
        <ele>0</ele>
        <time>2020-05-30T20:48:03Z</time>
      </trkpt>
      <trkpt lat="51.22766745009" lon="4.463049524225">
        <ele>0</ele>
        <time>2020-05-30T20:48:42Z</time>
      </trkpt>
      <trkpt lat="51.227583044357" lon="4.462862691674">
        <ele>0</ele>
        <time>2020-05-30T20:49:14Z</time>
      </trkpt>
      <trkpt lat="51.227445245921" lon="4.462176884616">
        <ele>0</ele>
        <time>2020-05-30T20:49:55Z</time>
      </trkpt>
      <trkpt lat="51.227408868475" lon="4.461630468555">
        <ele>3.2</ele>
        <time>2020-05-30T20:50:31Z</time>
      </trkpt>
      <trkpt lat="51.227360924007" lon="4.461175163747">
        <ele>4.6</ele>
        <time>2020-05-30T20:51:06Z</time>
      </trkpt>
      <trkpt lat="51.227631743196" lon="4.460682308027">
        <ele>14.4</ele>
        <time>2020-05-30T20:51:57Z</time>
      </trkpt>
      <trkpt lat="51.227693266342" lon="4.460684487321">
        <ele>16.8</ele>
        <time>2020-05-30T20:52:04Z</time>
      </trkpt>
      <trkpt lat="51.228038852079" lon="4.460550209283">
        <ele>22.8</ele>
        <time>2020-05-30T20:52:47Z</time>
      </trkpt>
      <trkpt lat="51.228339762289" lon="4.460041176496">
        <ele>13.2</ele>
        <time>2020-05-30T20:53:17Z</time>
      </trkpt>
      <trkpt lat="51.228479740019" lon="4.459350927031">
        <ele>5.4</ele>
        <time>2020-05-30T20:53:59Z</time>
      </trkpt>
      <trkpt lat="51.228506394461" lon="4.459062254395">
        <ele>4.6</ele>
        <time>2020-05-30T20:54:18Z</time>
      </trkpt>
      <trkpt lat="51.228539754423" lon="4.458343087375">
        <ele>11</ele>
        <time>2020-05-30T20:54:58Z</time>
      </trkpt>
      <trkpt lat="51.228577305335" lon="4.458173437719">
        <ele>2.2</ele>
        <time>2020-05-30T20:55:17Z</time>
      </trkpt>
      <trkpt lat="51.228982402562" lon="4.458180227058">
        <ele>9.4</ele>
        <time>2020-05-30T20:55:57Z</time>
      </trkpt>
      <trkpt lat="51.229068149399" lon="4.458138317558">
        <ele>11.8</ele>
        <time>2020-05-30T20:56:13Z</time>
      </trkpt>
      <trkpt lat="51.229219107418" lon="4.458140245395">
        <ele>9.8</ele>
        <time>2020-05-30T20:56:30Z</time>
      </trkpt>
      <trkpt lat="51.229647590146" lon="4.457935978492">
        <ele>9.6</ele>
        <time>2020-05-30T20:57:14Z</time>
      </trkpt>
      <trkpt lat="51.229689918741" lon="4.457960621278">
        <ele>10.2</ele>
        <time>2020-05-30T20:57:44Z</time>
      </trkpt>
    </trkseg>
  </trk>
</gpx>